createdAt,value
2023-08-22T00:01:26.120Z,16.62
2023-08-22T00:04:32.774Z,17.01
2023-08-22T00:07:41.494Z,16.87
2023-08-22T00:10:48.294Z,16.10
2023-08-22T00:13:54.447Z,15.79
2023-08-22T00:17:01.070Z,16.58
2023-08-22T00:20:09.376Z,16.43
2023-08-22T00:23:17.487Z,16.55
2023-08-22T00:26:24.184Z,17.08
2023-08-22T00:29:30.683Z,17.12
2023-08-22T00:32:37.196Z,16.94
2023-08-22T00:35:44.028Z,17.30
2023-08-22T00:38:51.897Z,17.21
2023-08-22T00:41:58.229Z,17.14
2023-08-22T00:45:04.921Z,16.26
2023-08-22T00:48:12.492Z,16.50
2023-08-22T00:51:19.669Z,16.51
2023-08-22T00:54:28.184Z,16.10
2023-08-22T00:57:34.903Z,16.25
2023-08-22T01:00:41.374Z,16.39
2023-08-22T01:03:47.962Z,16.21
2023-08-22T01:07:00.088Z,15.94
2023-08-22T01:10:14.253Z,16.08
2023-08-22T01:13:25.398Z,16.24
2023-08-22T01:16:32.289Z,15.73
2023-08-22T01:19:39.231Z,16.04
2023-08-22T01:22:46.894Z,15.35
2023-08-22T01:25:53.265Z,15.89
2023-08-22T01:29:06.321Z,15.44
2023-08-22T01:32:18.498Z,15.28
2023-08-22T01:35:26.992Z,15.37
2023-08-22T01:38:37.124Z,15.02
2023-08-22T01:41:44.530Z,15.28
2023-08-22T01:44:51.087Z,15.42
2023-08-22T01:47:57.451Z,16.03
2023-08-22T01:51:03.941Z,15.57
2023-08-22T01:54:11.691Z,15.93
2023-08-22T01:57:17.860Z,15.63
2023-08-22T02:00:24.535Z,16.01
2023-08-22T02:03:30.654Z,15.51
2023-08-22T02:06:36.848Z,15.59
2023-08-22T02:09:44.529Z,15.47
2023-08-22T02:12:50.691Z,15.44
2023-08-22T02:15:57.013Z,15.77
2023-08-22T02:19:03.161Z,15.40
2023-08-22T02:22:09.578Z,16.23
2023-08-22T02:25:17.577Z,15.44
2023-08-22T02:28:23.937Z,15.22
2023-08-22T02:31:30.380Z,15.16
2023-08-22T02:34:37.022Z,15.50
2023-08-22T02:37:43.663Z,15.16
2023-08-22T02:40:51.585Z,15.30
2023-08-22T02:43:58.128Z,15.85
2023-08-22T02:47:04.717Z,15.10
2023-08-22T02:50:11.910Z,15.76
2023-08-22T02:53:18.185Z,16.22
2023-08-22T02:56:26.123Z,16.17
2023-08-22T02:59:32.580Z,16.18
2023-08-22T03:02:39.397Z,15.93
2023-08-22T03:05:45.596Z,15.52
2023-08-22T03:08:51.980Z,15.95
2023-08-22T03:11:59.694Z,14.82
2023-08-22T03:15:06.575Z,14.63
2023-08-22T03:18:12.784Z,14.38
2023-08-22T03:21:18.961Z,14.50
2023-08-22T03:24:25.429Z,15.52
2023-08-22T03:27:33.497Z,15.76
2023-08-22T03:30:39.950Z,15.93
2023-08-22T03:33:46.133Z,14.98
2023-08-22T03:36:52.545Z,15.29
2023-08-22T03:39:58.860Z,14.57
2023-08-22T03:43:07.076Z,14.27
2023-08-22T03:46:18.954Z,14.21
2023-08-22T03:49:31.049Z,14.23
2023-08-22T03:52:37.479Z,14.67
2023-08-22T03:55:45.808Z,15.34
2023-08-22T03:58:53.766Z,14.96
2023-08-22T04:01:59.919Z,15.22
2023-08-22T04:05:06.550Z,15.22
2023-08-22T04:08:12.915Z,15.92
2023-08-22T04:11:19.470Z,16.17
2023-08-22T04:14:27.069Z,15.74
2023-08-22T04:17:33.368Z,15.48
2023-08-22T04:20:41.212Z,15.44
2023-08-22T04:23:47.454Z,15.03
2023-08-22T04:26:53.989Z,14.91
2023-08-22T04:30:02.827Z,14.66
2023-08-22T04:33:09.132Z,14.81
2023-08-22T04:36:15.666Z,15.27
2023-08-22T04:39:22.114Z,15.87
2023-08-22T04:42:28.665Z,15.77
2023-08-22T04:45:37.404Z,16.02
2023-08-22T04:48:43.805Z,16.11
2023-08-22T04:51:50.346Z,15.96
2023-08-22T04:54:57.603Z,16.58
2023-08-22T04:58:04.203Z,16.48
2023-08-22T05:01:12.224Z,16.54
2023-08-22T05:04:19.163Z,16.52
2023-08-22T05:07:25.776Z,16.77
2023-08-22T05:10:32.331Z,17.22
2023-08-22T05:13:38.612Z,18.14
2023-08-22T05:16:46.677Z,18.13
2023-08-22T05:19:53.081Z,18.41
2023-08-22T05:22:59.747Z,18.34
2023-08-22T05:26:06.092Z,19.02
2023-08-22T05:29:12.068Z,19.05
2023-08-22T05:32:20.344Z,19.09
2023-08-22T05:35:27.405Z,19.19
2023-08-22T05:38:33.696Z,19.60
2023-08-22T05:41:39.989Z,19.82
2023-08-22T05:44:46.365Z,20.00
2023-08-22T05:47:54.329Z,20.17
2023-08-22T05:51:02.864Z,19.99
2023-08-22T05:54:09.408Z,20.81
2023-08-22T05:57:16.019Z,20.53
2023-08-22T06:00:22.390Z,20.32
2023-08-22T06:03:30.332Z,21.29
2023-08-22T06:06:36.535Z,20.85
2023-08-22T06:09:43.080Z,21.36
2023-08-22T06:12:49.614Z,21.99
2023-08-22T06:15:58.464Z,21.40
2023-08-22T06:19:06.370Z,21.97
2023-08-22T06:22:12.551Z,22.04
2023-08-22T06:25:19.396Z,22.57
2023-08-22T06:28:26.013Z,22.83
2023-08-22T06:31:33.062Z,23.34
2023-08-22T06:34:40.571Z,23.19
2023-08-22T06:37:46.760Z,23.34
2023-08-22T06:40:53.579Z,24.27
2023-08-22T06:44:01.766Z,22.97
2023-08-22T06:47:08.460Z,23.47
2023-08-22T06:50:15.912Z,23.97
2023-08-22T06:53:22.306Z,25.20
2023-08-22T06:56:29.010Z,24.34
2023-08-22T06:59:35.050Z,24.91
2023-08-22T07:02:41.575Z,25.09
2023-08-22T07:05:53.938Z,24.94
2023-08-22T07:09:00.272Z,25.73
2023-08-22T07:12:07.212Z,25.55
2023-08-22T07:15:13.784Z,26.02
2023-08-22T07:18:20.539Z,26.19
2023-08-22T07:21:28.162Z,26.59
2023-08-22T07:24:34.606Z,26.41
2023-08-22T07:27:41.639Z,27.09
2023-08-22T07:30:49.155Z,27.37
2023-08-22T07:33:56.098Z,26.66
2023-08-22T07:37:04.093Z,27.69
2023-08-22T07:40:11.486Z,27.78
2023-08-22T07:43:17.543Z,27.83
2023-08-22T07:46:24.054Z,27.30
2023-08-22T07:49:30.305Z,27.85
2023-08-22T07:52:38.020Z,27.63
2023-08-22T07:55:48.198Z,27.60
2023-08-22T07:58:54.350Z,28.37
2023-08-22T08:02:00.708Z,28.04
2023-08-22T08:05:08.141Z,28.89
2023-08-22T08:08:16.123Z,28.72
2023-08-22T08:11:22.278Z,29.86
2023-08-22T08:14:28.958Z,30.15
2023-08-22T08:17:35.567Z,30.05
2023-08-22T08:20:41.984Z,31.02
2023-08-22T08:23:49.743Z,30.86
2023-08-22T08:26:56.341Z,31.57
2023-08-22T08:30:06.443Z,30.22
2023-08-22T08:33:13.127Z,30.42
2023-08-22T08:36:19.813Z,31.01
2023-08-22T08:39:27.669Z,31.15
2023-08-22T08:42:37.697Z,31.76
2023-08-22T08:45:44.174Z,31.61
2023-08-22T08:48:51.026Z,32.18
2023-08-22T08:52:00.388Z,32.21
2023-08-22T08:55:09.219Z,31.74
2023-08-22T08:58:15.556Z,32.65
2023-08-22T09:01:24.297Z,31.25
2023-08-22T09:04:30.850Z,31.43
2023-08-22T09:07:38.180Z,32.27
2023-08-22T09:10:52.067Z,31.21
2023-08-22T09:13:59.376Z,32.11
2023-08-22T09:17:05.910Z,30.85
2023-08-22T09:20:12.292Z,31.57
2023-08-22T09:23:22.734Z,32.17
2023-08-22T09:26:30.453Z,32.66
2023-08-22T09:29:37.321Z,32.91
2023-08-22T09:32:43.955Z,30.47
2023-08-22T09:35:56.832Z,31.81
2023-08-22T09:39:03.976Z,31.92
2023-08-22T09:42:12.706Z,32.31
2023-08-22T09:45:21.811Z,32.74
2023-08-22T09:48:35.047Z,32.87
2023-08-22T09:51:42.711Z,32.03
2023-08-22T09:54:48.779Z,32.51
2023-08-22T09:57:57.203Z,33.33
2023-08-22T10:01:06.118Z,32.03
2023-08-22T10:04:13.852Z,32.98
2023-08-22T10:07:20.226Z,33.39
2023-08-22T10:10:27.042Z,32.94
2023-08-22T10:13:35.700Z,32.51
2023-08-22T10:16:42.338Z,33.70
2023-08-22T10:19:48.943Z,33.86
2023-08-22T10:22:55.217Z,34.41
2023-08-22T10:26:05.273Z,33.88
2023-08-22T10:29:17.796Z,32.61
2023-08-22T10:32:25.457Z,31.88
2023-08-22T10:35:32.361Z,33.50
2023-08-22T10:38:57.374Z,33.67
2023-08-22T10:42:04.043Z,34.76
2023-08-22T10:45:18.811Z,34.32
2023-08-22T10:48:25.740Z,33.66
2023-08-22T10:51:45.399Z,34.71
2023-08-22T10:55:01.630Z,34.10
2023-08-22T10:58:09.369Z,33.53
2023-08-22T11:01:18.127Z,33.86
2023-08-22T11:04:24.800Z,32.48
2023-08-22T11:07:32.650Z,33.03
2023-08-22T11:10:40.620Z,33.84
2023-08-22T11:13:47.342Z,33.97
2023-08-22T11:16:55.794Z,33.22
2023-08-22T11:20:04.595Z,33.92
2023-08-22T11:23:11.272Z,34.17
2023-08-22T11:26:24.215Z,33.73
2023-08-22T11:29:30.617Z,34.71
2023-08-22T11:32:41.540Z,34.22
2023-08-22T11:35:48.100Z,34.23
2023-08-22T11:38:54.828Z,34.31
2023-08-22T11:42:01.451Z,35.28
2023-08-22T11:45:09.300Z,35.13
2023-08-22T11:48:20.269Z,34.98
2023-08-22T11:51:26.647Z,34.95
2023-08-22T11:54:33.174Z,35.26
2023-08-22T11:57:42.403Z,34.63
2023-08-22T12:00:48.737Z,34.16
2023-08-22T12:03:59.940Z,33.19
2023-08-22T12:07:06.591Z,32.68
2023-08-22T12:10:13.925Z,32.62
2023-08-22T12:13:22.697Z,32.38
2023-08-22T12:16:29.493Z,32.18
2023-08-22T12:19:37.502Z,32.58
2023-08-22T12:22:43.523Z,31.73
2023-08-22T12:25:49.903Z,32.43
2023-08-22T12:28:56.293Z,32.35
2023-08-22T12:32:03.476Z,31.97
2023-08-22T12:35:12.363Z,31.68
2023-08-22T12:38:18.607Z,31.41
2023-08-22T12:41:25.212Z,31.26
2023-08-22T12:44:34.514Z,31.44
2023-08-22T12:47:42.151Z,31.43
2023-08-22T12:50:49.932Z,31.55
2023-08-22T12:53:56.033Z,31.48
2023-08-22T12:57:02.638Z,30.98
2023-08-22T13:00:11.031Z,31.15
2023-08-22T13:03:17.562Z,31.13
2023-08-22T13:06:25.550Z,31.25
2023-08-22T13:09:31.855Z,31.19
2023-08-22T13:12:39.306Z,30.91
2023-08-22T13:15:45.670Z,31.17
2023-08-22T13:18:52.169Z,31.13
2023-08-22T13:22:00.271Z,31.21
2023-08-22T13:25:07.309Z,31.34
2023-08-22T13:28:13.972Z,31.20
2023-08-22T13:31:21.352Z,31.06
2023-08-22T13:34:28.008Z,31.25
2023-08-22T13:37:36.117Z,31.32
2023-08-22T13:40:42.439Z,32.55
2023-08-22T13:43:48.989Z,33.43
2023-08-22T13:46:55.578Z,32.75
2023-08-22T13:50:01.958Z,34.05
2023-08-22T13:53:09.517Z,34.73
2023-08-22T13:56:17.369Z,33.24
2023-08-22T13:59:23.603Z,31.75
2023-08-22T14:02:29.894Z,31.73
2023-08-22T14:05:36.426Z,31.79
2023-08-22T14:08:44.378Z,31.59
2023-08-22T14:11:50.650Z,31.79
2023-08-22T14:14:57.016Z,33.45
2023-08-22T14:18:03.456Z,34.42
2023-08-22T14:21:09.852Z,34.35
2023-08-22T14:24:17.863Z,34.97
2023-08-22T14:27:26.592Z,34.77
2023-08-22T14:30:34.078Z,34.15
2023-08-22T14:33:40.930Z,34.01
2023-08-22T14:36:47.398Z,35.01
2023-08-22T14:39:55.675Z,35.19
2023-08-22T14:43:01.703Z,34.30
2023-08-22T14:46:09.726Z,35.08
2023-08-22T14:49:16.277Z,35.38
2023-08-22T14:52:22.428Z,34.80
2023-08-22T14:55:30.192Z,34.38
2023-08-22T14:58:40.755Z,34.45
2023-08-22T15:01:47.221Z,33.47
2023-08-22T15:04:53.905Z,33.31
2023-08-22T15:08:00.867Z,33.47
2023-08-22T15:11:09.521Z,32.94
2023-08-22T15:14:15.763Z,32.74
2023-08-22T15:17:22.226Z,32.54
2023-08-22T15:20:28.706Z,31.96
2023-08-22T15:23:35.457Z,31.88
2023-08-22T15:26:45.140Z,31.92
2023-08-22T15:29:51.692Z,31.85
2023-08-22T15:32:58.359Z,31.12
2023-08-22T15:36:06.319Z,31.44
2023-08-22T15:39:12.723Z,30.67
2023-08-22T15:42:20.797Z,30.58
2023-08-22T15:45:27.169Z,30.52
2023-08-22T15:48:33.925Z,30.34
2023-08-22T15:51:42.910Z,30.42
2023-08-22T15:54:49.537Z,30.32
2023-08-22T15:57:57.615Z,30.43
2023-08-22T16:01:04.304Z,30.31
2023-08-22T16:04:11.134Z,29.95
2023-08-22T16:07:17.557Z,29.84
2023-08-22T16:10:24.363Z,29.95
2023-08-22T16:13:32.283Z,30.02
2023-08-22T16:16:38.895Z,29.61
2023-08-22T16:19:46.628Z,29.68
2023-08-22T16:22:53.197Z,29.31
2023-08-22T16:25:59.727Z,29.47
2023-08-22T16:29:07.671Z,29.43
2023-08-22T16:32:13.743Z,29.27
2023-08-22T16:35:20.635Z,29.18
2023-08-22T16:38:26.935Z,29.21
2023-08-22T16:41:33.184Z,28.97
2023-08-22T16:44:40.875Z,29.02
2023-08-22T16:47:47.647Z,29.02
2023-08-22T16:50:56.763Z,29.18
2023-08-22T16:54:03.728Z,28.80
2023-08-22T16:57:10.446Z,29.07
2023-08-22T17:00:18.690Z,28.24
2023-08-22T17:03:24.849Z,28.15
2023-08-22T17:06:31.137Z,27.96
2023-08-22T17:09:37.562Z,27.81
2023-08-22T17:12:43.957Z,28.54
2023-08-22T17:16:00.270Z,28.00
2023-08-22T17:19:06.401Z,27.55
2023-08-22T17:22:12.751Z,27.35
2023-08-22T17:25:19.327Z,27.37
2023-08-22T17:28:25.530Z,27.18
2023-08-22T17:31:33.387Z,26.85
2023-08-22T17:34:39.831Z,27.48
2023-08-22T17:37:46.734Z,26.75
2023-08-22T17:40:53.079Z,26.37
2023-08-22T17:43:59.808Z,26.59
2023-08-22T17:47:08.076Z,26.83
2023-08-22T17:50:14.651Z,26.34
2023-08-22T17:53:21.113Z,26.49
2023-08-22T17:56:27.553Z,26.45
2023-08-22T17:59:33.787Z,26.47
2023-08-22T18:02:41.717Z,26.26
2023-08-22T18:05:56.258Z,26.33
2023-08-22T18:09:04.615Z,26.28
2023-08-22T18:12:11.546Z,26.44
2023-08-22T18:15:19.683Z,26.49
2023-08-22T18:18:27.570Z,26.30
2023-08-22T18:21:33.868Z,26.09
2023-08-22T18:24:40.245Z,25.80
2023-08-22T18:27:46.911Z,25.57
2023-08-22T18:30:57.893Z,25.31
2023-08-22T18:34:05.259Z,25.45
2023-08-22T18:37:11.288Z,25.29
2023-08-22T18:40:17.940Z,25.19
2023-08-22T18:43:24.475Z,25.27
2023-08-22T18:46:30.641Z,25.50
2023-08-22T18:49:38.602Z,25.21
2023-08-22T18:52:46.171Z,24.96
2023-08-22T18:55:52.579Z,25.02
2023-08-22T18:59:00.214Z,24.86
2023-08-22T19:02:06.794Z,24.94
2023-08-22T19:05:14.637Z,24.68
2023-08-22T19:08:20.779Z,24.47
2023-08-22T19:11:27.839Z,24.60
2023-08-22T19:14:34.356Z,24.63
2023-08-22T19:17:40.691Z,24.63
2023-08-22T19:20:49.033Z,24.63
2023-08-22T19:23:56.711Z,24.62
2023-08-22T19:27:03.106Z,24.61
2023-08-22T19:30:10.760Z,24.06
2023-08-22T19:33:18.875Z,24.15
2023-08-22T19:36:28.073Z,24.79
2023-08-22T19:39:34.471Z,24.72
2023-08-22T19:42:40.971Z,24.44
2023-08-22T19:45:48.022Z,24.20
2023-08-22T19:48:55.380Z,24.17
2023-08-22T19:52:03.908Z,24.50
2023-08-22T19:55:13.147Z,24.42
2023-08-22T19:58:20.648Z,24.21
2023-08-22T20:01:29.773Z,23.72
2023-08-22T20:04:36.335Z,23.51
2023-08-22T20:07:44.637Z,23.37
2023-08-22T20:10:51.586Z,23.32
2023-08-22T20:13:58.201Z,23.45
2023-08-22T20:17:04.658Z,23.09
2023-08-22T20:20:11.770Z,23.10
2023-08-22T20:23:19.779Z,23.28
2023-08-22T20:26:26.929Z,23.21
2023-08-22T20:29:33.383Z,23.08
2023-08-22T20:32:39.828Z,22.99
2023-08-22T20:35:51.064Z,22.96
2023-08-22T20:39:00.705Z,22.84
2023-08-22T20:42:07.319Z,22.68
2023-08-22T20:45:13.593Z,22.64
2023-08-22T20:48:20.209Z,22.48
2023-08-22T20:51:26.965Z,22.68
2023-08-22T20:54:35.133Z,22.60
2023-08-22T20:57:41.617Z,22.68
2023-08-22T21:00:48.281Z,22.84
2023-08-22T21:03:54.951Z,22.38
2023-08-22T21:07:01.353Z,22.70
2023-08-22T21:10:09.880Z,22.43
2023-08-22T21:13:16.360Z,22.54
2023-08-22T21:16:23.318Z,22.68
2023-08-22T21:19:29.934Z,22.64
2023-08-22T21:22:36.349Z,22.35
2023-08-22T21:25:44.260Z,21.73
2023-08-22T21:28:50.481Z,21.64
2023-08-22T21:31:56.963Z,21.73
2023-08-22T21:35:03.352Z,22.09
2023-08-22T21:38:09.596Z,21.88
2023-08-22T21:41:17.326Z,21.74
2023-08-22T21:44:23.668Z,21.79
2023-08-22T21:47:30.094Z,21.71
2023-08-22T21:50:36.301Z,21.87
2023-08-22T21:53:42.850Z,21.53
2023-08-22T21:56:50.698Z,21.42
2023-08-22T21:59:57.091Z,21.72
2023-08-22T22:03:03.839Z,21.69
2023-08-22T22:06:11.054Z,20.70
2023-08-22T22:09:17.365Z,20.96
2023-08-22T22:12:25.741Z,20.97
2023-08-22T22:15:32.149Z,20.75
2023-08-22T22:18:38.494Z,20.93
2023-08-22T22:21:45.327Z,20.82
2023-08-22T22:24:51.797Z,20.94
2023-08-22T22:28:00.079Z,20.57
2023-08-22T22:31:10.139Z,20.40
2023-08-22T22:34:16.634Z,20.76
2023-08-22T22:37:23.325Z,20.87
2023-08-22T22:40:30.079Z,21.09
2023-08-22T22:43:38.171Z,20.93
2023-08-22T22:46:44.942Z,20.77
2023-08-22T22:49:51.225Z,20.38
2023-08-22T22:52:57.593Z,20.66
2023-08-22T22:56:05.448Z,20.23
2023-08-22T22:59:13.455Z,19.90
2023-08-22T23:02:19.715Z,20.06
2023-08-22T23:05:26.552Z,20.21
2023-08-22T23:08:32.954Z,19.88
2023-08-22T23:11:38.897Z,19.58
2023-08-22T23:14:58.060Z,19.72
2023-08-22T23:18:04.501Z,19.43
2023-08-22T23:21:11.893Z,20.01
2023-08-22T23:24:18.222Z,20.13
2023-08-22T23:27:24.830Z,20.03
2023-08-22T23:30:33.119Z,20.03
2023-08-22T23:33:39.751Z,20.17
2023-08-22T23:36:46.376Z,19.95
2023-08-22T23:39:53.222Z,19.63
2023-08-22T23:42:59.937Z,19.42
2023-08-22T23:46:08.067Z,19.11
2023-08-22T23:49:14.582Z,19.37
2023-08-22T23:52:21.107Z,19.72
2023-08-22T23:55:27.510Z,19.85
2023-08-22T23:58:35.875Z,19.68
